sensor_id;sensor_type;location;lat;lon;timestamp;temperature;humidity
23769;DHT22;12064;50.890;5.424;2023-08-06T00:04:23;20.70;99.20
23769;DHT22;12064;50.890;5.424;2023-08-06T00:13:14;20.70;99.10
23769;DHT22;12064;50.890;5.424;2023-08-06T00:22:05;20.70;99.20
23769;DHT22;12064;50.890;5.424;2023-08-06T00:30:56;20.70;99.20
23769;DHT22;12064;50.890;5.424;2023-08-06T00:39:47;20.70;99.20
23769;DHT22;12064;50.890;5.424;2023-08-06T00:48:37;20.70;99.60
23769;DHT22;12064;50.890;5.424;2023-08-06T00:57:28;20.70;99.30
23769;DHT22;12064;50.890;5.424;2023-08-06T01:15:56;20.70;99.40
23769;DHT22;12064;50.890;5.424;2023-08-06T01:24:50;20.60;99.50
23769;DHT22;12064;50.890;5.424;2023-08-06T01:33:45;20.60;99.50
23769;DHT22;12064;50.890;5.424;2023-08-06T01:42:40;20.70;99.60
23769;DHT22;12064;50.890;5.424;2023-08-06T01:51:34;20.60;99.50
23769;DHT22;12064;50.890;5.424;2023-08-06T02:00:24;20.60;99.60
23769;DHT22;12064;50.890;5.424;2023-08-06T02:09:15;20.60;99.70
23769;DHT22;12064;50.890;5.424;2023-08-06T02:18:09;20.60;99.70
23769;DHT22;12064;50.890;5.424;2023-08-06T02:27:00;20.60;99.80
23769;DHT22;12064;50.890;5.424;2023-08-06T02:36:00;20.60;99.80
23769;DHT22;12064;50.890;5.424;2023-08-06T02:44:52;20.60;99.80
23769;DHT22;12064;50.890;5.424;2023-08-06T02:53:42;20.60;99.90
23769;DHT22;12064;50.890;5.424;2023-08-06T03:02:33;20.50;99.90
23769;DHT22;12064;50.890;5.424;2023-08-06T03:11:26;20.50;99.90
23769;DHT22;12064;50.890;5.424;2023-08-06T03:20:17;20.50;99.90
23769;DHT22;12064;50.890;5.424;2023-08-06T03:29:07;20.60;99.90
23769;DHT22;12064;50.890;5.424;2023-08-06T03:37:58;20.50;99.90
23769;DHT22;12064;50.890;5.424;2023-08-06T03:46:49;20.50;99.90
23769;DHT22;12064;50.890;5.424;2023-08-06T03:55:42;20.50;99.90
23769;DHT22;12064;50.890;5.424;2023-08-06T04:04:33;20.50;99.90
23769;DHT22;12064;50.890;5.424;2023-08-06T04:13:24;20.50;99.90
23769;DHT22;12064;50.890;5.424;2023-08-06T04:22:17;20.50;99.90
23769;DHT22;12064;50.890;5.424;2023-08-06T04:31:08;20.50;99.90
23769;DHT22;12064;50.890;5.424;2023-08-06T04:39:59;20.50;99.90
23769;DHT22;12064;50.890;5.424;2023-08-06T04:48:49;20.50;99.90
23769;DHT22;12064;50.890;5.424;2023-08-06T04:57:40;20.40;99.90
23769;DHT22;12064;50.890;5.424;2023-08-06T05:06:33;20.50;99.90
23769;DHT22;12064;50.890;5.424;2023-08-06T05:15:24;20.40;99.90
23769;DHT22;12064;50.890;5.424;2023-08-06T05:24:15;20.40;99.90
23769;DHT22;12064;50.890;5.424;2023-08-06T05:33:06;20.40;99.90
23769;DHT22;12064;50.890;5.424;2023-08-06T05:41:57;20.40;99.90
23769;DHT22;12064;50.890;5.424;2023-08-06T05:50:47;20.40;99.90
23769;DHT22;12064;50.890;5.424;2023-08-06T05:59:40;20.40;99.90
23769;DHT22;12064;50.890;5.424;2023-08-06T06:08:34;20.40;99.90
23769;DHT22;12064;50.890;5.424;2023-08-06T06:17:28;20.40;99.90
23769;DHT22;12064;50.890;5.424;2023-08-06T06:26:19;20.40;99.90
23769;DHT22;12064;50.890;5.424;2023-08-06T06:35:12;20.40;99.90
23769;DHT22;12064;50.890;5.424;2023-08-06T06:44:03;20.40;99.90
23769;DHT22;12064;50.890;5.424;2023-08-06T06:52:54;20.40;99.90
23769;DHT22;12064;50.890;5.424;2023-08-06T07:01:47;20.40;99.90
23769;DHT22;12064;50.890;5.424;2023-08-06T07:10:40;20.40;99.90
23769;DHT22;12064;50.890;5.424;2023-08-06T07:19:31;20.40;99.90
23769;DHT22;12064;50.890;5.424;2023-08-06T07:28:21;20.40;99.90
23769;DHT22;12064;50.890;5.424;2023-08-06T07:37:12;20.30;99.90
23769;DHT22;12064;50.890;5.424;2023-08-06T07:46:03;20.40;99.90
23769;DHT22;12064;50.890;5.424;2023-08-06T07:54:54;20.30;99.90
23769;DHT22;12064;50.890;5.424;2023-08-06T08:03:47;20.40;99.90
23769;DHT22;12064;50.890;5.424;2023-08-06T08:12:38;20.40;99.90
23769;DHT22;12064;50.890;5.424;2023-08-06T08:21:28;20.40;99.90
23769;DHT22;12064;50.890;5.424;2023-08-06T08:30:22;20.40;99.90
23769;DHT22;12064;50.890;5.424;2023-08-06T08:39:15;20.40;99.90
23769;DHT22;12064;50.890;5.424;2023-08-06T08:48:11;20.40;99.90
23769;DHT22;12064;50.890;5.424;2023-08-06T08:57:04;20.40;99.90
23769;DHT22;12064;50.890;5.424;2023-08-06T09:05:56;20.40;99.90
23769;DHT22;12064;50.890;5.424;2023-08-06T09:14:51;20.40;99.90
23769;DHT22;12064;50.890;5.424;2023-08-06T09:23:42;20.40;99.90
23769;DHT22;12064;50.890;5.424;2023-08-06T09:32:59;20.40;99.90
23769;DHT22;12064;50.890;5.424;2023-08-06T09:41:58;20.40;99.90
23769;DHT22;12064;50.890;5.424;2023-08-06T09:50:53;20.40;99.90
23769;DHT22;12064;50.890;5.424;2023-08-06T09:59:45;20.30;99.90
23769;DHT22;12064;50.890;5.424;2023-08-06T10:08:37;20.40;99.90
23769;DHT22;12064;50.890;5.424;2023-08-06T10:17:33;20.40;99.90
23769;DHT22;12064;50.890;5.424;2023-08-06T10:26:28;20.40;99.90
23769;DHT22;12064;50.890;5.424;2023-08-06T10:35:34;20.40;99.90
23769;DHT22;12064;50.890;5.424;2023-08-06T10:44:25;20.40;99.90
23769;DHT22;12064;50.890;5.424;2023-08-06T10:53:21;20.40;99.90
23769;DHT22;12064;50.890;5.424;2023-08-06T11:02:12;20.40;99.90
23769;DHT22;12064;50.890;5.424;2023-08-06T11:11:16;20.40;99.90
23769;DHT22;12064;50.890;5.424;2023-08-06T11:20:07;20.40;99.90
23769;DHT22;12064;50.890;5.424;2023-08-06T11:28:58;20.40;99.90
23769;DHT22;12064;50.890;5.424;2023-08-06T11:37:49;20.40;99.90
23769;DHT22;12064;50.890;5.424;2023-08-06T11:46:55;20.40;99.90
23769;DHT22;12064;50.890;5.424;2023-08-06T11:55:46;20.40;99.90
23769;DHT22;12064;50.890;5.424;2023-08-06T12:13:55;20.40;99.90
23769;DHT22;12064;50.890;5.424;2023-08-06T12:22:47;20.40;99.90
23769;DHT22;12064;50.890;5.424;2023-08-06T12:31:37;20.40;99.90
23769;DHT22;12064;50.890;5.424;2023-08-06T12:40:31;20.40;99.90
23769;DHT22;12064;50.890;5.424;2023-08-06T12:49:22;20.30;99.90
23769;DHT22;12064;50.890;5.424;2023-08-06T12:58:16;20.30;99.90
23769;DHT22;12064;50.890;5.424;2023-08-06T13:07:06;20.40;99.90
23769;DHT22;12064;50.890;5.424;2023-08-06T13:16:00;20.30;99.90
23769;DHT22;12064;50.890;5.424;2023-08-06T13:24:51;20.30;99.90
23769;DHT22;12064;50.890;5.424;2023-08-06T13:33:41;20.30;99.90
23769;DHT22;12064;50.890;5.424;2023-08-06T13:42:34;20.30;99.90
23769;DHT22;12064;50.890;5.424;2023-08-06T13:51:28;20.40;99.90
23769;DHT22;12064;50.890;5.424;2023-08-06T14:00:19;20.40;99.90
23769;DHT22;12064;50.890;5.424;2023-08-06T14:09:12;20.40;99.90
23769;DHT22;12064;50.890;5.424;2023-08-06T14:18:05;20.40;99.90
23769;DHT22;12064;50.890;5.424;2023-08-06T14:26:55;20.40;99.90
23769;DHT22;12064;50.890;5.424;2023-08-06T14:35:46;20.30;99.90
23769;DHT22;12064;50.890;5.424;2023-08-06T14:44:36;20.30;99.90
23769;DHT22;12064;50.890;5.424;2023-08-06T14:53:27;20.30;99.90
23769;DHT22;12064;50.890;5.424;2023-08-06T15:02:21;20.30;99.90
23769;DHT22;12064;50.890;5.424;2023-08-06T15:11:13;20.30;99.90
23769;DHT22;12064;50.890;5.424;2023-08-06T15:20:04;20.30;99.90
23769;DHT22;12064;50.890;5.424;2023-08-06T15:28:55;20.30;99.90
23769;DHT22;12064;50.890;5.424;2023-08-06T15:37:48;20.30;99.90
23769;DHT22;12064;50.890;5.424;2023-08-06T15:46:41;20.30;99.90
23769;DHT22;12064;50.890;5.424;2023-08-06T15:55:35;20.30;99.90
23769;DHT22;12064;50.890;5.424;2023-08-06T16:04:29;20.30;99.90
23769;DHT22;12064;50.890;5.424;2023-08-06T16:13:20;20.30;99.90
23769;DHT22;12064;50.890;5.424;2023-08-06T16:22:11;20.30;99.90
23769;DHT22;12064;50.890;5.424;2023-08-06T16:31:05;20.30;99.90
23769;DHT22;12064;50.890;5.424;2023-08-06T16:40:01;20.30;99.90
23769;DHT22;12064;50.890;5.424;2023-08-06T16:48:51;20.30;99.90
23769;DHT22;12064;50.890;5.424;2023-08-06T16:57:42;20.30;99.90
23769;DHT22;12064;50.890;5.424;2023-08-06T17:06:33;20.30;99.90
23769;DHT22;12064;50.890;5.424;2023-08-06T17:15:24;20.30;99.90
23769;DHT22;12064;50.890;5.424;2023-08-06T17:24:15;20.30;99.90
23769;DHT22;12064;50.890;5.424;2023-08-06T17:33:09;20.20;99.90
23769;DHT22;12064;50.890;5.424;2023-08-06T17:42:00;20.20;99.90
23769;DHT22;12064;50.890;5.424;2023-08-06T17:50:53;20.20;99.90
23769;DHT22;12064;50.890;5.424;2023-08-06T17:59:44;20.30;99.90
23769;DHT22;12064;50.890;5.424;2023-08-06T18:08:35;20.20;99.90
23769;DHT22;12064;50.890;5.424;2023-08-06T18:17:28;20.30;99.90
23769;DHT22;12064;50.890;5.424;2023-08-06T18:26:19;20.20;99.90
23769;DHT22;12064;50.890;5.424;2023-08-06T18:35:10;20.20;99.90
23769;DHT22;12064;50.890;5.424;2023-08-06T18:44:01;20.20;99.90
23769;DHT22;12064;50.890;5.424;2023-08-06T18:52:52;20.20;99.90
23769;DHT22;12064;50.890;5.424;2023-08-06T19:01:43;20.20;99.90
23769;DHT22;12064;50.890;5.424;2023-08-06T19:10:36;20.10;99.90
23769;DHT22;12064;50.890;5.424;2023-08-06T19:19:27;20.10;99.90
23769;DHT22;12064;50.890;5.424;2023-08-06T19:28:17;20.10;99.90
23769;DHT22;12064;50.890;5.424;2023-08-06T19:37:11;20.10;99.90
23769;DHT22;12064;50.890;5.424;2023-08-06T19:46:06;20.10;99.90
23769;DHT22;12064;50.890;5.424;2023-08-06T19:54:56;20.10;99.90
23769;DHT22;12064;50.890;5.424;2023-08-06T20:03:47;20.10;99.90
23769;DHT22;12064;50.890;5.424;2023-08-06T20:12:38;20.00;99.90
23769;DHT22;12064;50.890;5.424;2023-08-06T20:21:32;20.00;99.90
23769;DHT22;12064;50.890;5.424;2023-08-06T20:30:22;20.00;99.90
23769;DHT22;12064;50.890;5.424;2023-08-06T20:39:13;20.00;99.90
23769;DHT22;12064;50.890;5.424;2023-08-06T20:48:04;20.00;99.90
23769;DHT22;12064;50.890;5.424;2023-08-06T20:56:55;20.00;99.90
23769;DHT22;12064;50.890;5.424;2023-08-06T21:05:46;20.00;99.90
23769;DHT22;12064;50.890;5.424;2023-08-06T21:14:39;20.00;99.90
23769;DHT22;12064;50.890;5.424;2023-08-06T21:23:30;20.00;99.90
23769;DHT22;12064;50.890;5.424;2023-08-06T21:32:24;20.00;99.90
23769;DHT22;12064;50.890;5.424;2023-08-06T21:41:17;19.90;99.90
23769;DHT22;12064;50.890;5.424;2023-08-06T21:50:10;19.90;99.90
23769;DHT22;12064;50.890;5.424;2023-08-06T21:59:04;20.00;99.90
23769;DHT22;12064;50.890;5.424;2023-08-06T22:07:57;19.90;99.90
23769;DHT22;12064;50.890;5.424;2023-08-06T22:16:50;19.90;99.90
23769;DHT22;12064;50.890;5.424;2023-08-06T22:25:43;19.90;99.90
23769;DHT22;12064;50.890;5.424;2023-08-06T22:34:37;19.80;99.90
23769;DHT22;12064;50.890;5.424;2023-08-06T22:43:30;19.90;99.90
23769;DHT22;12064;50.890;5.424;2023-08-06T22:52:24;19.80;99.90
23769;DHT22;12064;50.890;5.424;2023-08-06T23:01:15;19.80;99.90
23769;DHT22;12064;50.890;5.424;2023-08-06T23:10:09;19.80;99.90
23769;DHT22;12064;50.890;5.424;2023-08-06T23:18:59;19.80;99.90
23769;DHT22;12064;50.890;5.424;2023-08-06T23:27:50;19.80;99.90
23769;DHT22;12064;50.890;5.424;2023-08-06T23:36:44;19.80;99.90
23769;DHT22;12064;50.890;5.424;2023-08-06T23:45:35;19.80;99.90
23769;DHT22;12064;50.890;5.424;2023-08-06T23:54:25;19.70;99.90
